Time;durP1;ratioP1;P1;durP2;ratioP2;P2;SDS_P1;SDS_P2;PMS_P1;PMS_P2;Temp;Humidity;BMP_temperature;BMP_pressure;BME280_temperature;BME280_humidity;BME280_pressure;Samples;Min_cycle;Max_cycle;Signal;HPM_P1;HPM_P2
2022/02/11 00:00:02;;;;;;;3.28;1.52;;;;;;;;;;5029846;28;20045;-75
2022/02/11 00:05:23;;;;;;;3.90;2.15;;;;;;;;;;5019516;28;20044;-74
2022/02/11 00:07:47;;;;;;;3.72;1.75;;;;;;;;;;5026108;28;20043;-74
2022/02/11 00:10:12;;;;;;;4.90;1.70;;;;;;;;;;5015686;28;20423;-74
2022/02/11 00:12:38;;;;;;;3.55;1.90;;;;;;;;;;5019375;28;20075;-74
2022/02/11 00:15:35;;;;;;;4.47;1.92;;;;;;;;;;5003716;28;20046;-74
2022/02/11 00:17:50;;;;;;;3.33;1.65;;;;;;;;;;5044663;28;20155;-74
2022/02/11 00:20:16;;;;;;;3.97;1.65;;;;;;;;;;5032992;28;20087;-74
2022/02/11 00:22:42;;;;;;;3.10;1.45;;;;;;;;;;5004670;28;20037;-74
2022/02/11 00:25:08;;;;;;;3.15;1.50;;;;;;;;;;5004185;28;20479;-74
2022/02/11 00:30:33;;;;;;;3.17;1.58;;;;;;;;;;5000501;28;20038;-74
2022/02/11 00:33:35;;;;;;;2.47;1.40;;;;;;;;;;5022184;28;20047;-74
2022/02/11 00:35:41;;;;;;;3.70;1.45;;;;;;;;;;4988522;28;20530;-74
2022/02/11 00:38:15;;;;;;;4.05;1.83;;;;;;;;;;5004845;28;20041;-74
2022/02/11 01:02:20;;;;;;;2.85;1.40;;;;;;;;;;5019462;28;20061;-74
2022/02/11 01:04:46;;;;;;;2.83;1.48;;;;;;;;;;5043900;28;20414;-74
2022/02/11 01:07:11;;;;;;;2.85;1.13;;;;;;;;;;5018227;28;20052;-74
2022/02/11 01:09:39;;;;;;;3.58;1.25;;;;;;;;;;5015593;28;20108;-74
2022/02/11 01:12:05;;;;;;;3.25;1.20;;;;;;;;;;5014844;28;20041;-75
2022/02/11 01:14:37;;;;;;;2.80;1.40;;;;;;;;;;5031561;28;20483;-74
2022/02/11 01:17:16;;;;;;;2.63;1.42;;;;;;;;;;5015676;28;20045;-74
2022/02/11 01:50:35;;;;;;;2.35;1.40;;;;;;;;;;5017416;28;20037;-74
2022/02/11 02:11:50;;;;;;;3.00;1.50;;;;;;;;;;5037296;28;20048;-74
2022/02/11 02:35:35;;;;;;;2.22;1.15;;;;;;;;;;5023395;28;20132;-74
2022/02/11 02:56:56;;;;;;;3.38;1.63;;;;;;;;;;5012650;28;20125;-74
2022/02/11 03:00:03;;;;;;;3.83;1.50;;;;;;;;;;5007903;28;20447;-74
2022/02/11 03:34:58;;;;;;;3.78;1.50;;;;;;;;;;5013919;28;20119;-74
2022/02/11 03:51:28;;;;;;;3.28;1.40;;;;;;;;;;5021293;28;20130;-74
2022/02/11 04:24:15;;;;;;;3.50;1.52;;;;;;;;;;5037842;28;20045;-75
2022/02/11 04:56:09;;;;;;;2.45;1.35;;;;;;;;;;5022664;28;20033;-75
2022/02/11 05:01:19;;;;;;;4.03;1.40;;;;;;;;;;5020353;28;20076;-75
2022/02/11 05:03:44;;;;;;;3.45;1.45;;;;;;;;;;5026513;28;20116;-75
2022/02/11 05:06:10;;;;;;;3.10;1.42;;;;;;;;;;5048015;28;20041;-75
2022/02/11 05:08:35;;;;;;;4.10;1.55;;;;;;;;;;5016222;28;20519;-75
2022/02/11 05:11:02;;;;;;;3.13;1.27;;;;;;;;;;5034609;28;20076;-75
2022/02/11 05:13:28;;;;;;;4.85;1.38;;;;;;;;;;5000906;28;20075;-75
2022/02/11 05:15:54;;;;;;;3.88;1.50;;;;;;;;;;5015553;28;20036;-75
2022/02/11 05:18:19;;;;;;;3.78;1.45;;;;;;;;;;4999113;28;20033;-75
2022/02/11 05:20:45;;;;;;;4.30;1.92;;;;;;;;;;5018477;28;20046;-75
2022/02/11 05:23:13;;;;;;;4.05;1.55;;;;;;;;;;5020980;28;20052;-75
2022/02/11 05:25:39;;;;;;;3.25;1.35;;;;;;;;;;5014490;28;20446;-75
2022/02/11 05:28:05;;;;;;;3.65;1.10;;;;;;;;;;5010106;28;20057;-75
2022/02/11 05:30:30;;;;;;;2.95;1.17;;;;;;;;;;5011574;28;20052;-75
2022/02/11 05:32:56;;;;;;;5.05;1.20;;;;;;;;;;5018042;28;20037;-75
2022/02/11 05:35:22;;;;;;;2.45;1.17;;;;;;;;;;5024370;28;20051;-75
2022/02/11 05:37:49;;;;;;;4.97;2.03;;;;;;;;;;4998043;28;20555;-75
2022/02/11 05:40:14;;;;;;;4.55;1.52;;;;;;;;;;5019014;28;20126;-75
2022/02/11 05:42:40;;;;;;;3.83;1.42;;;;;;;;;;5013878;28;20071;-75
2022/02/11 05:45:05;;;;;;;3.40;1.50;;;;;;;;;;5029486;28;20045;-75
2022/02/11 05:47:31;;;;;;;5.20;1.50;;;;;;;;;;5032703;28;20030;-75
2022/02/11 05:49:57;;;;;;;3.25;1.33;;;;;;;;;;5017168;28;20060;-75
2022/02/11 05:52:22;;;;;;;3.67;1.40;;;;;;;;;;4997988;28;20442;-75
2022/02/11 05:54:48;;;;;;;4.20;1.33;;;;;;;;;;5015634;28;20510;-75
2022/02/11 05:57:13;;;;;;;2.72;0.90;;;;;;;;;;5047340;28;20044;-75
2022/02/11 05:59:38;;;;;;;3.97;1.35;;;;;;;;;;5016203;28;20157;-75
2022/02/11 06:02:04;;;;;;;4.60;1.70;;;;;;;;;;5010215;28;20053;-75
2022/02/11 06:04:29;;;;;;;3.97;1.27;;;;;;;;;;5030697;28;20041;-76
2022/02/11 06:06:57;;;;;;;3.17;1.25;;;;;;;;;;5011561;28;20214;-75
2022/02/11 06:09:23;;;;;;;4.10;1.63;;;;;;;;;;4982530;28;20041;-75
2022/02/11 06:11:48;;;;;;;3.28;1.30;;;;;;;;;;4997700;28;20240;-75
2022/02/11 06:14:14;;;;;;;3.75;1.40;;;;;;;;;;5013400;28;20041;-75
2022/02/11 06:16:39;;;;;;;2.33;1.02;;;;;;;;;;5029537;28;20045;-75
2022/02/11 06:19:05;;;;;;;2.85;1.10;;;;;;;;;;5030426;28;20045;-76
2022/02/11 06:21:31;;;;;;;6.40;1.40;;;;;;;;;;5028835;28;20038;-76
2022/02/11 06:23:56;;;;;;;7.00;2.35;;;;;;;;;;5014162;28;20038;-75
2022/02/11 06:26:23;;;;;;;8.00;2.28;;;;;;;;;;5042120;28;20143;-75
2022/02/11 06:28:49;;;;;;;4.75;1.70;;;;;;;;;;5028503;28;20048;-76
2022/02/11 06:31:14;;;;;;;4.70;1.90;;;;;;;;;;5034737;28;20041;-76
2022/02/11 06:33:41;;;;;;;5.07;1.50;;;;;;;;;;5030032;28;20052;-76
2022/02/11 06:36:06;;;;;;;7.40;1.75;;;;;;;;;;5028442;28;20076;-75
2022/02/11 06:38:31;;;;;;;6.13;2.45;;;;;;;;;;5030018;28;20049;-75
2022/02/11 06:40:57;;;;;;;8.35;1.98;;;;;;;;;;5025027;28;20025;-75
2022/02/11 06:43:22;;;;;;;7.10;1.67;;;;;;;;;;4993225;28;20045;-75
2022/02/11 06:45:48;;;;;;;8.07;2.42;;;;;;;;;;5016561;28;20037;-75
2022/02/11 06:48:16;;;;;;;11.60;2.45;;;;;;;;;;5016325;28;20045;-75
2022/02/11 06:50:43;;;;;;;6.45;2.10;;;;;;;;;;5012555;28;20033;-74
2022/02/11 06:53:09;;;;;;;8.00;1.83;;;;;;;;;;5015231;28;20087;-74
2022/02/11 06:55:35;;;;;;;11.38;2.30;;;;;;;;;;5032139;28;20063;-74
2022/02/11 06:58:00;;;;;;;8.15;2.08;;;;;;;;;;5030990;28;20050;-74
2022/02/11 07:00:26;;;;;;;6.20;1.90;;;;;;;;;;5015620;28;20040;-74
2022/02/11 07:02:51;;;;;;;7.63;1.70;;;;;;;;;;5014259;28;20176;-74
2022/02/11 07:05:18;;;;;;;8.25;1.80;;;;;;;;;;5009144;28;20081;-74
2022/02/11 07:07:43;;;;;;;10.20;2.83;;;;;;;;;;4998501;28;20045;-74
2022/02/11 07:10:09;;;;;;;6.57;1.80;;;;;;;;;;4998709;28;20044;-74
2022/02/11 07:12:34;;;;;;;6.75;2.20;;;;;;;;;;5016676;28;20045;-74
2022/02/11 07:15:00;;;;;;;9.98;3.50;;;;;;;;;;5016040;28;20044;-74
2022/02/11 07:17:25;;;;;;;6.85;2.28;;;;;;;;;;5016218;28;20397;-76
2022/02/11 07:19:51;;;;;;;12.43;2.10;;;;;;;;;;4995845;28;20419;-76
2022/02/11 07:22:16;;;;;;;7.72;1.90;;;;;;;;;;5001847;28;20095;-75
2022/02/11 07:24:41;;;;;;;8.68;2.42;;;;;;;;;;4996877;28;20104;-75
2022/02/11 07:27:09;;;;;;;10.35;1.90;;;;;;;;;;5045153;28;20106;-75
2022/02/11 07:29:35;;;;;;;7.70;2.25;;;;;;;;;;5034336;28;20076;-76
2022/02/11 07:32:00;;;;;;;6.63;1.52;;;;;;;;;;5004340;28;20131;-76
2022/02/11 07:34:25;;;;;;;9.02;2.97;;;;;;;;;;5015988;28;20156;-77
2022/02/11 07:36:51;;;;;;;11.85;3.22;;;;;;;;;;5017106;28;20384;-76
2022/02/11 07:39:16;;;;;;;16.60;4.00;;;;;;;;;;5017624;28;20399;-76
2022/02/11 07:41:42;;;;;;;12.15;3.17;;;;;;;;;;5016774;28;20458;-76
2022/02/11 07:44:07;;;;;;;10.75;4.10;;;;;;;;;;5000513;28;20462;-76
2022/02/11 07:46:33;;;;;;;8.63;3.40;;;;;;;;;;5016656;28;20038;-76
2022/02/11 07:48:58;;;;;;;12.68;3.47;;;;;;;;;;5016632;28;20041;-76
2022/02/11 07:51:24;;;;;;;10.60;3.28;;;;;;;;;;5003677;28;20420;-76
2022/02/11 07:53:49;;;;;;;11.80;3.33;;;;;;;;;;5019880;28;20392;-76
2022/02/11 07:56:14;;;;;;;9.35;3.08;;;;;;;;;;5034165;28;20037;-76
2022/02/11 07:58:40;;;;;;;11.57;3.10;;;;;;;;;;5036422;28;20489;-76
2022/02/11 08:01:06;;;;;;;11.85;2.95;;;;;;;;;;4993315;28;20124;-76
2022/02/11 08:03:32;;;;;;;8.48;2.58;;;;;;;;;;5018457;28;20033;-76
2022/02/11 08:05:58;;;;;;;7.18;3.25;;;;;;;;;;5000266;28;20053;-76
2022/02/11 08:08:27;;;;;;;9.13;2.20;;;;;;;;;;5016282;28;20033;-76
2022/02/11 08:10:53;;;;;;;8.30;2.55;;;;;;;;;;5016682;28;20048;-76
2022/02/11 08:13:19;;;;;;;11.80;2.58;;;;;;;;;;5015200;28;20041;-76
2022/02/11 08:15:44;;;;;;;6.35;2.50;;;;;;;;;;5000102;28;20443;-76
2022/02/11 08:18:09;;;;;;;6.22;2.28;;;;;;;;;;4999860;28;20049;-76
2022/02/11 08:20:35;;;;;;;5.72;1.70;;;;;;;;;;5016353;28;20115;-76
2022/02/11 08:23:00;;;;;;;5.40;2.75;;;;;;;;;;5016585;28;20041;-76
2022/02/11 08:25:26;;;;;;;8.07;2.90;;;;;;;;;;5016301;28;20447;-76
2022/02/11 08:27:54;;;;;;;6.32;2.25;;;;;;;;;;5015941;28;20041;-76
2022/02/11 08:30:19;;;;;;;6.35;2.10;;;;;;;;;;5016471;28;20034;-76
2022/02/11 08:32:45;;;;;;;6.05;2.10;;;;;;;;;;5015822;28;20462;-76
2022/02/11 08:35:10;;;;;;;7.47;2.30;;;;;;;;;;5015916;28;20093;-76
2022/02/11 08:37:36;;;;;;;7.53;2.30;;;;;;;;;;5015201;28;20108;-76
2022/02/11 08:40:01;;;;;;;5.93;2.10;;;;;;;;;;4999483;28;20034;-76
2022/02/11 08:42:27;;;;;;;10.27;2.50;;;;;;;;;;4999598;28;20041;-76
2022/02/11 08:44:52;;;;;;;5.88;2.22;;;;;;;;;;4999082;28;20152;-76
2022/02/11 08:47:18;;;;;;;5.70;2.40;;;;;;;;;;5015958;28;20442;-76
2022/02/11 08:49:43;;;;;;;6.13;2.00;;;;;;;;;;5015781;28;20160;-76
2022/02/11 08:52:09;;;;;;;5.40;2.17;;;;;;;;;;5025179;28;20037;-76
2022/02/11 08:54:34;;;;;;;4.03;1.45;;;;;;;;;;5002886;28;20089;-76
2022/02/11 08:57:00;;;;;;;4.97;2.08;;;;;;;;;;5018761;28;20036;-76
2022/02/11 08:59:26;;;;;;;5.75;2.03;;;;;;;;;;5034897;28;20036;-76
2022/02/11 09:01:52;;;;;;;6.20;2.53;;;;;;;;;;5002812;28;20048;-76
2022/02/11 09:04:17;;;;;;;7.00;2.50;;;;;;;;;;5018669;28;20418;-76
2022/02/11 09:06:49;;;;;;;7.45;2.20;;;;;;;;;;5018707;28;20087;-76
2022/02/11 09:09:15;;;;;;;5.90;2.17;;;;;;;;;;5004132;28;20065;-76
2022/02/11 09:11:41;;;;;;;6.68;2.28;;;;;;;;;;5018601;28;20071;-76
2022/02/11 09:14:08;;;;;;;6.63;2.22;;;;;;;;;;5018377;28;20037;-76
2022/02/11 09:16:34;;;;;;;5.90;2.25;;;;;;;;;;5002678;28;20033;-76
2022/02/11 09:18:59;;;;;;;7.40;2.70;;;;;;;;;;5034740;28;20037;-76
2022/02/11 09:21:25;;;;;;;6.10;3.67;;;;;;;;;;5018780;28;20160;-76
2022/02/11 09:23:50;;;;;;;6.85;2.72;;;;;;;;;;5018468;28;20045;-76
2022/02/11 09:26:16;;;;;;;5.80;2.80;;;;;;;;;;5018527;28;20376;-76
2022/02/11 09:28:41;;;;;;;7.00;2.22;;;;;;;;;;5018275;28;20036;-76
2022/02/11 09:31:08;;;;;;;8.18;3.70;;;;;;;;;;5001863;28;20040;-76
2022/02/11 09:33:34;;;;;;;9.02;3.70;;;;;;;;;;5018742;28;20039;-76
2022/02/11 09:35:59;;;;;;;8.55;3.63;;;;;;;;;;5034467;28;20029;-76
2022/02/11 09:38:24;;;;;;;7.28;3.13;;;;;;;;;;5002021;28;20083;-76
2022/02/11 09:40:51;;;;;;;10.98;4.05;;;;;;;;;;5017956;28;20955;-76
2022/02/11 09:43:24;;;;;;;7.78;3.40;;;;;;;;;;5017771;28;20083;-76
2022/02/11 09:45:50;;;;;;;10.10;3.75;;;;;;;;;;5018349;28;20040;-76
2022/02/11 09:48:16;;;;;;;7.63;3.65;;;;;;;;;;5018140;28;20041;-76
2022/02/11 09:50:41;;;;;;;8.35;3.05;;;;;;;;;;5018186;28;20510;-76
2022/02/11 09:53:07;;;;;;;6.50;2.45;;;;;;;;;;5024705;28;20108;-76
2022/02/11 09:55:33;;;;;;;11.43;4.53;;;;;;;;;;5017994;28;20037;-76
2022/02/11 09:58:07;;;;;;;9.55;3.42;;;;;;;;;;5001231;28;20090;-76
2022/02/11 10:00:34;;;;;;;10.43;3.38;;;;;;;;;;5001925;28;20041;-76
2022/02/11 10:03:21;;;;;;;9.73;3.45;;;;;;;;;;5011745;28;20033;-76
2022/02/11 10:05:47;;;;;;;8.43;2.70;;;;;;;;;;5023227;28;20049;-76
2022/02/11 10:08:14;;;;;;;7.55;3.28;;;;;;;;;;5017868;28;20033;-76
2022/02/11 10:10:39;;;;;;;6.50;2.33;;;;;;;;;;4997862;28;20049;-76
2022/02/11 10:13:06;;;;;;;6.97;2.45;;;;;;;;;;5015714;28;20187;-76
2022/02/11 10:15:33;;;;;;;8.55;3.10;;;;;;;;;;5001029;28;20100;-76
2022/02/11 10:17:59;;;;;;;6.93;2.88;;;;;;;;;;4997938;28;20045;-76
2022/02/11 10:20:29;;;;;;;6.70;2.80;;;;;;;;;;4981620;28;20077;-76
2022/02/11 10:23:13;;;;;;;5.43;2.60;;;;;;;;;;4982664;28;20539;-76
2022/02/11 10:25:54;;;;;;;5.60;2.78;;;;;;;;;;4997945;28;20033;-76
2022/02/11 10:28:29;;;;;;;7.18;3.08;;;;;;;;;;5014180;28;20583;-76
2022/02/11 10:31:08;;;;;;;9.30;2.85;;;;;;;;;;5013944;28;20105;-76
2022/02/11 10:33:50;;;;;;;7.30;3.10;;;;;;;;;;4997989;28;20515;-76
2022/02/11 10:36:19;;;;;;;6.10;2.70;;;;;;;;;;4998359;28;20056;-76
2022/02/11 10:38:44;;;;;;;9.68;2.85;;;;;;;;;;5013738;28;20196;-76
2022/02/11 10:41:10;;;;;;;6.63;3.13;;;;;;;;;;4998035;28;20860;-76
2022/02/11 10:43:35;;;;;;;6.60;2.20;;;;;;;;;;4997555;28;20056;-76
2022/02/11 10:46:04;;;;;;;7.25;2.58;;;;;;;;;;5013941;28;20041;-76
2022/02/11 10:48:34;;;;;;;6.32;2.90;;;;;;;;;;5014078;28;20044;-76
2022/02/11 10:51:01;;;;;;;9.15;2.53;;;;;;;;;;5029053;28;20115;-76
2022/02/11 10:53:39;;;;;;;8.13;2.85;;;;;;;;;;5017229;28;20044;-75
2022/02/11 10:56:04;;;;;;;7.60;2.95;;;;;;;;;;4997788;28;20041;-76
2022/02/11 10:58:32;;;;;;;8.02;2.90;;;;;;;;;;5018999;28;20462;-76
2022/02/11 11:01:01;;;;;;;9.20;2.47;;;;;;;;;;5015438;28;20044;-76
2022/02/11 11:03:33;;;;;;;8.00;2.90;;;;;;;;;;4985044;28;20095;-76
2022/02/11 11:06:00;;;;;;;8.43;2.53;;;;;;;;;;5033336;28;20044;-76
2022/02/11 11:08:29;;;;;;;6.07;2.60;;;;;;;;;;5033440;28;20041;-76
2022/02/11 11:10:56;;;;;;;6.88;2.65;;;;;;;;;;5016694;28;20091;-76
2022/02/11 11:13:21;;;;;;;8.32;2.30;;;;;;;;;;5009017;28;20423;-76
2022/02/11 11:15:47;;;;;;;7.05;2.38;;;;;;;;;;5007670;28;20033;-76
2022/02/11 11:18:16;;;;;;;7.43;2.90;;;;;;;;;;5006925;28;20033;-76
2022/02/11 11:20:41;;;;;;;6.57;2.25;;;;;;;;;;5033474;28;20504;-76
2022/02/11 11:23:28;;;;;;;8.15;2.38;;;;;;;;;;5026004;28;20057;-76
2022/02/11 11:26:13;;;;;;;8.48;2.85;;;;;;;;;;5025975;28;20045;-76
2022/02/11 11:28:38;;;;;;;9.45;2.80;;;;;;;;;;5018691;28;20033;-76
2022/02/11 11:31:14;;;;;;;7.13;3.00;;;;;;;;;;5037342;28;20550;-76
2022/02/11 11:33:40;;;;;;;5.38;2.05;;;;;;;;;;5016090;28;20037;-76
2022/02/11 11:36:09;;;;;;;9.00;3.17;;;;;;;;;;5033301;28;20488;-76
2022/02/11 11:38:38;;;;;;;7.63;2.65;;;;;;;;;;5000519;28;20136;-76
2022/02/11 11:41:08;;;;;;;9.23;2.33;;;;;;;;;;5049449;28;20037;-76
2022/02/11 11:43:39;;;;;;;5.47;2.30;;;;;;;;;;5027787;28;20399;-75
2022/02/11 11:46:16;;;;;;;8.98;2.38;;;;;;;;;;5023639;28;20038;-76
2022/02/11 11:49:03;;;;;;;9.38;2.15;;;;;;;;;;5034211;28;20511;-76
2022/02/11 11:51:54;;;;;;;7.22;2.33;;;;;;;;;;5036943;28;20040;-75
2022/02/11 11:54:21;;;;;;;7.32;2.15;;;;;;;;;;5042712;28;20079;-75
2022/02/11 11:56:53;;;;;;;9.02;2.72;;;;;;;;;;5032015;28;20126;-75
2022/02/11 11:59:40;;;;;;;7.90;2.63;;;;;;;;;;5054045;28;20620;-75
2022/02/11 12:02:07;;;;;;;6.90;2.67;;;;;;;;;;5036533;28;20435;-75
2022/02/11 12:04:34;;;;;;;10.52;3.67;;;;;;;;;;5035683;28;20037;-75
2022/02/11 12:07:01;;;;;;;8.85;3.13;;;;;;;;;;5020020;28;20044;-75
2022/02/11 12:09:27;;;;;;;15.30;5.25;;;;;;;;;;5035865;28;20071;-76
2022/02/11 12:12:13;;;;;;;9.77;4.28;;;;;;;;;;5033519;28;20056;-75
2022/02/11 12:14:39;;;;;;;9.77;3.42;;;;;;;;;;5046396;28;20056;-75
2022/02/11 12:17:06;;;;;;;8.85;3.67;;;;;;;;;;5032786;28;20041;-75
2022/02/11 12:19:33;;;;;;;8.77;4.53;;;;;;;;;;5003051;28;20415;-75
2022/02/11 12:21:59;;;;;;;8.77;3.50;;;;;;;;;;5037048;28;20048;-76
2022/02/11 12:27:21;;;;;;;8.32;3.83;;;;;;;;;;5039937;28;20040;-76
2022/02/11 12:29:50;;;;;;;9.88;3.80;;;;;;;;;;5023992;28;20037;-75
2022/02/11 12:32:20;;;;;;;8.35;3.67;;;;;;;;;;5020808;28;20044;-75
2022/02/11 12:35:04;;;;;;;13.30;3.80;;;;;;;;;;5041156;28;20041;-76
2022/02/11 12:37:30;;;;;;;11.07;3.35;;;;;;;;;;5015460;28;20404;-75
2022/02/11 12:40:11;;;;;;;10.45;3.90;;;;;;;;;;5024833;28;20039;-75
2022/02/11 12:42:39;;;;;;;9.43;3.15;;;;;;;;;;4999507;28;20064;-75
2022/02/11 12:45:06;;;;;;;8.02;2.75;;;;;;;;;;4981474;28;20116;-75
2022/02/11 12:47:32;;;;;;;7.10;3.25;;;;;;;;;;4997850;28;20092;-75
2022/02/11 12:49:59;;;;;;;8.68;3.00;;;;;;;;;;4997683;28;20037;-75
2022/02/11 12:52:28;;;;;;;11.90;3.40;;;;;;;;;;5042766;28;20029;-76
2022/02/11 12:55:16;;;;;;;9.52;3.78;;;;;;;;;;5017339;28;20037;-76
2022/02/11 12:57:43;;;;;;;11.23;3.50;;;;;;;;;;5035235;28;20060;-76
2022/02/11 13:00:14;;;;;;;15.05;7.75;;;;;;;;;;5015948;28;20037;-75
2022/02/11 13:02:40;;;;;;;19.20;9.05;;;;;;;;;;5023076;28;20109;-76
2022/02/11 13:05:06;;;;;;;17.77;9.43;;;;;;;;;;5015075;28;20108;-75
2022/02/11 13:07:32;;;;;;;20.70;9.07;;;;;;;;;;5038782;28;20120;-75
2022/02/11 13:09:58;;;;;;;14.25;7.75;;;;;;;;;;4985501;28;20108;-76
2022/02/11 13:12:23;;;;;;;16.02;7.95;;;;;;;;;;5014739;28;20052;-76
2022/02/11 13:14:49;;;;;;;16.95;7.53;;;;;;;;;;4998883;28;20029;-76
2022/02/11 13:17:14;;;;;;;12.73;6.70;;;;;;;;;;4998815;28;20045;-76
2022/02/11 13:19:39;;;;;;;14.02;7.72;;;;;;;;;;4998189;28;20112;-75
2022/02/11 13:22:05;;;;;;;14.65;7.05;;;;;;;;;;5014916;28;20415;-76
2022/02/11 13:24:34;;;;;;;13.30;6.53;;;;;;;;;;5000725;28;20486;-76
2022/02/11 13:27:00;;;;;;;16.88;7.20;;;;;;;;;;4998880;28;20496;-76
2022/02/11 13:29:25;;;;;;;13.52;7.15;;;;;;;;;;4999609;28;20040;-76
2022/02/11 13:31:51;;;;;;;12.27;6.80;;;;;;;;;;5017748;28;20041;-75
2022/02/11 13:34:17;;;;;;;12.15;6.30;;;;;;;;;;5029532;28;20379;-76
2022/02/11 13:36:48;;;;;;;11.40;5.60;;;;;;;;;;5024017;28;20043;-75
2022/02/11 13:39:28;;;;;;;11.65;5.95;;;;;;;;;;5014631;28;20041;-76
2022/02/11 13:41:54;;;;;;;13.82;6.57;;;;;;;;;;5020796;28;20049;-76
2022/02/11 13:44:21;;;;;;;12.60;6.45;;;;;;;;;;5033653;28;20072;-76
2022/02/11 13:46:53;;;;;;;17.45;6.60;;;;;;;;;;5018148;28;20033;-76
2022/02/11 13:49:20;;;;;;;17.67;6.97;;;;;;;;;;5016753;28;20044;-76
2022/02/11 13:53:01;;;;;;;16.23;6.15;;;;;;;;;;5000582;28;20746;-76
2022/02/11 13:54:31;;;;;;;14.63;6.10;;;;;;;;;;5023074;28;20040;-76
2022/02/11 13:56:59;;;;;;;13.25;5.60;;;;;;;;;;5032966;28;20554;-76
2022/02/11 13:59:26;;;;;;;15.20;5.80;;;;;;;;;;5027928;28;20041;-76
2022/02/11 14:01:52;;;;;;;11.85;4.95;;;;;;;;;;5020454;28;20044;-76
2022/02/11 14:04:22;;;;;;;15.32;6.10;;;;;;;;;;4997480;28;20030;-76
2022/02/11 14:06:54;;;;;;;16.05;5.47;;;;;;;;;;4981896;28;20496;-76
2022/02/11 14:09:28;;;;;;;14.77;5.40;;;;;;;;;;4995700;28;20512;-76
2022/02/11 14:11:54;;;;;;;11.02;5.28;;;;;;;;;;5003786;28;20045;-75
2022/02/11 14:14:21;;;;;;;13.80;4.80;;;;;;;;;;4985412;28;20029;-75
2022/02/11 14:16:52;;;;;;;15.60;5.75;;;;;;;;;;5014269;28;20530;-74
2022/02/11 14:19:24;;;;;;;17.80;5.20;;;;;;;;;;5024767;28;20462;-75
2022/02/11 14:21:50;;;;;;;11.47;4.97;;;;;;;;;;5034848;28;20123;-75
2022/02/11 14:24:15;;;;;;;13.70;4.80;;;;;;;;;;5017815;28;20342;-75
2022/02/11 14:26:40;;;;;;;18.05;5.57;;;;;;;;;;5017268;28;20585;-75
2022/02/11 14:29:07;;;;;;;11.95;3.97;;;;;;;;;;5017496;28;20045;-75
2022/02/11 14:31:32;;;;;;;16.23;4.75;;;;;;;;;;5034119;28;20041;-75
2022/02/11 14:33:58;;;;;;;14.13;4.47;;;;;;;;;;5033527;28;20122;-75
2022/02/11 14:36:23;;;;;;;12.52;4.60;;;;;;;;;;5033067;28;20116;-75
2022/02/11 14:38:50;;;;;;;8.27;3.83;;;;;;;;;;5017208;28;20037;-75
2022/02/11 14:43:59;;;;;;;12.90;3.92;;;;;;;;;;5019437;28;20515;-75
2022/02/11 14:46:25;;;;;;;10.02;4.30;;;;;;;;;;5033967;28;20040;-75
2022/02/11 14:48:52;;;;;;;10.65;3.83;;;;;;;;;;5033247;28;20040;-75
2022/02/11 14:51:17;;;;;;;8.85;3.35;;;;;;;;;;5017592;28;20044;-75
2022/02/11 14:53:43;;;;;;;11.80;3.90;;;;;;;;;;5016929;28;20041;-75
2022/02/11 14:56:08;;;;;;;14.98;3.40;;;;;;;;;;5016847;28;20100;-75
2022/02/11 14:58:34;;;;;;;11.20;3.92;;;;;;;;;;5033720;28;20091;-75
2022/02/11 15:00:59;;;;;;;9.32;3.17;;;;;;;;;;5000195;28;20033;-75
2022/02/11 15:03:26;;;;;;;11.18;3.20;;;;;;;;;;5017029;28;20453;-75
2022/02/11 15:05:51;;;;;;;10.93;3.05;;;;;;;;;;5016762;28;20641;-75
2022/02/11 15:08:17;;;;;;;8.93;3.20;;;;;;;;;;5051051;28;20041;-75
2022/02/11 15:10:42;;;;;;;8.95;2.65;;;;;;;;;;5016694;28;20415;-75
2022/02/11 15:13:09;;;;;;;9.93;2.83;;;;;;;;;;5016708;28;20142;-75
2022/02/11 15:15:37;;;;;;;6.50;2.65;;;;;;;;;;5000855;28;20065;-75
2022/02/11 15:18:05;;;;;;;9.65;2.90;;;;;;;;;;5017218;28;20483;-75
2022/02/11 15:20:32;;;;;;;7.97;2.67;;;;;;;;;;5017639;28;20119;-75
2022/02/11 15:22:58;;;;;;;7.80;2.10;;;;;;;;;;5033525;28;20047;-75
2022/02/11 15:25:23;;;;;;;6.90;2.25;;;;;;;;;;5014845;28;20045;-75
2022/02/11 15:27:49;;;;;;;12.23;2.75;;;;;;;;;;5020514;28;20033;-75
2022/02/11 15:30:14;;;;;;;11.30;3.25;;;;;;;;;;4984810;28;20044;-75
2022/02/11 15:32:41;;;;;;;9.73;3.00;;;;;;;;;;5015891;28;20059;-74
2022/02/11 15:35:07;;;;;;;8.48;2.55;;;;;;;;;;4987583;28;20041;-75
2022/02/11 15:37:32;;;;;;;9.40;3.45;;;;;;;;;;5009574;28;20466;-75
2022/02/11 15:39:58;;;;;;;9.60;2.90;;;;;;;;;;5011278;28;20462;-75
2022/02/11 15:42:24;;;;;;;12.18;2.80;;;;;;;;;;4995632;28;20046;-75
2022/02/11 15:44:50;;;;;;;11.60;2.95;;;;;;;;;;4995499;28;20042;-75
2022/02/11 15:47:15;;;;;;;229.98;110.68;;;;;;;;;;4997876;28;20041;-76
2022/02/11 15:49:40;;;;;;;1570.43;661.15;;;;;;;;;;5015480;28;20037;-75
2022/02/11 15:52:06;;;;;;;1613.30;672.00;;;;;;;;;;4979624;28;20533;-75
2022/02/11 15:54:32;;;;;;;1021.50;484.67;;;;;;;;;;5019142;28;20044;-76
2022/02/11 15:56:57;;;;;;;929.88;434.55;;;;;;;;;;5003883;28;20132;-76
2022/02/11 15:59:23;;;;;;;785.42;377.63;;;;;;;;;;5029672;28;20051;-75
2022/02/11 16:01:50;;;;;;;698.35;322.83;;;;;;;;;;5016660;28;20105;-76
2022/02/11 16:04:15;;;;;;;613.22;291.95;;;;;;;;;;5032919;28;20037;-76
2022/02/11 16:06:41;;;;;;;578.63;261.85;;;;;;;;;;5032654;28;20047;-75
2022/02/11 16:09:07;;;;;;;551.78;256.70;;;;;;;;;;5001566;28;20473;-76
2022/02/11 16:11:32;;;;;;;533.50;234.35;;;;;;;;;;5012812;28;20039;-76
2022/02/11 16:13:58;;;;;;;510.95;223.20;;;;;;;;;;5031438;28;20132;-76
2022/02/11 16:16:23;;;;;;;482.77;211.25;;;;;;;;;;5010764;28;20076;-76
2022/02/11 16:18:49;;;;;;;447.73;188.95;;;;;;;;;;5001763;28;20093;-76
2022/02/11 16:21:14;;;;;;;430.50;183.48;;;;;;;;;;5020816;28;20026;-76
2022/02/11 16:23:40;;;;;;;412.40;171.98;;;;;;;;;;5027458;28;20041;-76
2022/02/11 16:26:06;;;;;;;401.67;166.88;;;;;;;;;;5001194;28;20048;-76
2022/02/11 16:28:32;;;;;;;393.17;163.70;;;;;;;;;;4999685;28;20042;-77
2022/02/11 16:31:13;;;;;;;366.45;150.35;;;;;;;;;;5002839;28;20065;-76
2022/02/11 16:33:39;;;;;;;353.13;146.45;;;;;;;;;;5027163;28;20488;-77
2022/02/11 16:36:04;;;;;;;336.55;142.45;;;;;;;;;;5008055;28;20044;-76
2022/02/11 16:38:30;;;;;;;326.90;135.73;;;;;;;;;;5007083;28;20053;-76
2022/02/11 16:40:55;;;;;;;301.20;128.13;;;;;;;;;;5022221;28;20037;-76
2022/02/11 16:43:21;;;;;;;283.00;117.70;;;;;;;;;;5004609;28;20128;-76
2022/02/11 16:45:48;;;;;;;273.23;115.88;;;;;;;;;;5004725;28;20411;-77
2022/02/11 16:48:13;;;;;;;255.23;109.35;;;;;;;;;;5019798;28;20041;-77
2022/02/11 16:50:39;;;;;;;258.67;107.72;;;;;;;;;;5019358;28;20033;-76
2022/02/11 16:53:04;;;;;;;245.20;101.88;;;;;;;;;;5014945;28;20046;-76
2022/02/11 16:55:31;;;;;;;230.05;97.97;;;;;;;;;;4999486;28;20053;-76
2022/02/11 16:57:57;;;;;;;215.63;90.00;;;;;;;;;;5000268;28;20169;-77
2022/02/11 17:00:23;;;;;;;207.13;89.28;;;;;;;;;;5018520;28;20033;-76
2022/02/11 17:02:48;;;;;;;195.30;81.82;;;;;;;;;;4998946;28;20056;-76
2022/02/11 17:05:20;;;;;;;178.35;79.47;;;;;;;;;;5018247;28;20037;-76
2022/02/11 17:07:47;;;;;;;175.25;77.10;;;;;;;;;;5036143;28;20029;-76
2022/02/11 17:10:13;;;;;;;166.30;69.20;;;;;;;;;;5018694;28;20040;-76
2022/02/11 17:12:39;;;;;;;165.70;66.93;;;;;;;;;;5018198;28;20048;-76
2022/02/11 17:15:06;;;;;;;156.63;67.07;;;;;;;;;;5034256;28;20423;-76
2022/02/11 17:17:32;;;;;;;154.80;64.93;;;;;;;;;;5035260;28;20466;-76
2022/02/11 17:19:57;;;;;;;154.15;63.38;;;;;;;;;;5014840;28;20029;-76
2022/02/11 17:22:23;;;;;;;139.90;54.90;;;;;;;;;;4998780;28;20124;-76
2022/02/11 17:24:48;;;;;;;129.13;56.25;;;;;;;;;;4982652;28;20029;-76
2022/02/11 17:27:14;;;;;;;127.95;54.67;;;;;;;;;;4996353;28;20033;-76
2022/02/11 17:29:40;;;;;;;120.93;52.42;;;;;;;;;;5018100;28;20041;-76
2022/02/11 17:32:08;;;;;;;121.55;50.03;;;;;;;;;;5034618;28;20040;-76
2022/02/11 17:34:33;;;;;;;118.10;50.47;;;;;;;;;;5000276;28;20495;-76
2022/02/11 17:36:59;;;;;;;114.53;46.03;;;;;;;;;;4998330;28;20051;-76
2022/02/11 17:39:31;;;;;;;103.22;42.70;;;;;;;;;;4998700;28;20097;-76
2022/02/11 17:41:57;;;;;;;97.38;41.53;;;;;;;;;;4999845;28;20041;-76
2022/02/11 17:44:22;;;;;;;91.38;39.70;;;;;;;;;;5014705;28;20092;-75
2022/02/11 17:46:49;;;;;;;89.32;39.13;;;;;;;;;;5032146;28;20037;-76
2022/02/11 17:49:17;;;;;;;87.65;38.50;;;;;;;;;;5014661;28;20052;-76
2022/02/11 17:51:42;;;;;;;88.05;36.55;;;;;;;;;;4999127;28;20054;-76
2022/02/11 17:54:14;;;;;;;77.85;33.17;;;;;;;;;;5014197;28;20029;-77
2022/02/11 17:56:42;;;;;;;79.67;32.50;;;;;;;;;;5011075;28;20044;-77
2022/02/11 17:59:12;;;;;;;72.15;31.20;;;;;;;;;;5014261;28;20511;-76
2022/02/11 18:01:37;;;;;;;70.68;31.23;;;;;;;;;;5015280;28;20035;-77
2022/02/11 18:04:03;;;;;;;72.60;29.52;;;;;;;;;;5001377;28;20041;-77
2022/02/11 18:06:28;;;;;;;69.05;29.25;;;;;;;;;;4980304;28;20025;-77
2022/02/11 18:08:54;;;;;;;59.08;26.65;;;;;;;;;;5013497;28;20041;-77
2022/02/11 18:11:19;;;;;;;64.95;27.05;;;;;;;;;;5013020;28;20432;-77
2022/02/11 18:13:45;;;;;;;53.83;23.58;;;;;;;;;;5014040;28;20112;-77
2022/02/11 18:16:10;;;;;;;60.15;25.67;;;;;;;;;;5006035;28;20562;-77
2022/02/11 18:18:35;;;;;;;52.47;22.88;;;;;;;;;;5001326;28;20063;-77
2022/02/11 18:21:01;;;;;;;52.80;23.33;;;;;;;;;;5015985;28;20387;-77
2022/02/11 18:23:27;;;;;;;48.83;22.05;;;;;;;;;;5017443;28;20037;-77
2022/02/11 18:25:52;;;;;;;43.38;20.05;;;;;;;;;;5016745;28;20072;-76